KMTP/MTP METAR and TAF weather

Enter ICAO airport designator
Station Type Date Time Source
KMTP METAR 2020/11/25 21:54 UTC NOAA

KMTP 252154Z AUTO 23005KT 13/09 A3026 RMK AO1 SLP247 T01330094


Station Type Date Time Source
KMTP Decoded METAR 2020/11/25 21:54 UTC NOAA

MONTAUK AIRPORT, NY, United States (KMTP) 41-04N 071-55W 2M
Nov 25, 2020 - 04:54 PM EST / 2020.11.25 2154 UTC
Wind: from the SW (230 degrees) at 6 MPH (5 KT):0
Temperature: 55.9 F (13.3 C)
Dew Point: 48.9 F (9.4 C)
Relative Humidity: 77%
Pressure (altimeter): 30.26 in. Hg (1024 hPa)
ob: KMTP 252154Z AUTO 23005KT 13/09 A3026 RMK AO1 SLP247 T01330094
cycle: 22

Station Type Date Time Source
KMTP TAF UTC NOAA

Error!

Example: see airport list